createdAt,value
2018-08-17T00:02:14.310Z,18.90
2018-08-17T00:04:42.839Z,18.90
2018-08-17T00:07:13.336Z,18.90
2018-08-17T00:09:41.799Z,18.80
2018-08-17T00:12:10.266Z,18.80
2018-08-17T00:14:40.930Z,18.50
2018-08-17T00:17:09.537Z,18.60
2018-08-17T00:19:38.059Z,18.50
2018-08-17T00:22:06.623Z,18.30
2018-08-17T00:24:34.937Z,18.30
2018-08-17T00:27:03.244Z,18.30
2018-08-17T00:29:31.655Z,18.30
2018-08-17T00:31:59.927Z,18.30
2018-08-17T00:34:31.195Z,18.40
2018-08-17T00:36:59.798Z,18.40
2018-08-17T00:39:28.352Z,18.40
2018-08-17T00:41:56.824Z,18.50
2018-08-17T00:44:25.061Z,18.30
2018-08-17T00:46:53.294Z,18.10
2018-08-17T00:49:21.698Z,17.90
2018-08-17T00:51:50.159Z,17.90
2018-08-17T00:54:18.576Z,17.90
2018-08-17T00:56:46.958Z,17.80
2018-08-17T00:59:15.337Z,17.90
2018-08-17T01:01:43.770Z,17.80
2018-08-17T01:04:12.167Z,17.90
2018-08-17T01:06:40.511Z,17.80
2018-08-17T01:10:33.398Z,17.80
2018-08-17T01:13:01.788Z,17.70
2018-08-17T01:15:30.313Z,17.60
2018-08-17T01:17:58.742Z,17.50
2018-08-17T01:20:27.146Z,17.50
2018-08-17T01:22:55.535Z,17.40
2018-08-17T01:25:24.106Z,17.50
2018-08-17T01:27:52.775Z,17.60
2018-08-17T01:30:21.223Z,17.60
2018-08-17T01:32:49.888Z,17.60
2018-08-17T01:35:18.558Z,17.70
2018-08-17T01:37:47.130Z,17.70
2018-08-17T01:40:15.594Z,17.70
2018-08-17T01:42:44.208Z,17.70
2018-08-17T01:45:13.249Z,17.80
2018-08-17T01:47:41.820Z,17.80
2018-08-17T01:50:10.317Z,17.70
2018-08-17T01:52:38.793Z,17.60
2018-08-17T01:55:09.642Z,17.50
2018-08-17T01:57:38.102Z,17.50
2018-08-17T02:00:09.746Z,17.40
2018-08-17T02:02:39.779Z,17.50
2018-08-17T02:05:09.038Z,17.50
2018-08-17T02:07:37.649Z,17.50
2018-08-17T02:10:09.431Z,17.40
2018-08-17T02:12:38.304Z,17.30
2018-08-17T02:15:07.003Z,17.40
2018-08-17T02:17:35.402Z,17.30
2018-08-17T02:20:04.093Z,17.20
2018-08-17T02:22:32.481Z,17.10
2018-08-17T02:25:00.917Z,17.20
2018-08-17T02:27:29.419Z,17.30
2018-08-17T02:29:58.095Z,17.30
2018-08-17T02:32:26.646Z,17.30
2018-08-17T02:37:23.454Z,17.30
2018-08-17T02:42:20.142Z,17.40
2018-08-17T02:44:48.711Z,17.40
2018-08-17T02:47:17.216Z,17.40
2018-08-17T02:49:45.734Z,17.30
2018-08-17T02:52:14.530Z,17.30
2018-08-17T02:54:43.051Z,17.20
2018-08-17T02:57:11.466Z,17.20
2018-08-17T02:59:39.960Z,17.10
2018-08-17T03:02:08.454Z,17.10
2018-08-17T03:04:37.085Z,17.10
2018-08-17T03:07:05.603Z,17.00
2018-08-17T03:09:34.133Z,17.00
2018-08-17T03:12:02.602Z,16.90
2018-08-17T03:14:31.238Z,16.80
2018-08-17T03:16:59.832Z,16.80
2018-08-17T03:19:28.445Z,16.80
2018-08-17T03:21:56.811Z,16.80
2018-08-17T03:24:25.218Z,16.80
2018-08-17T03:26:53.667Z,16.90
2018-08-17T03:29:22.185Z,16.90
2018-08-17T03:31:50.636Z,16.80
2018-08-17T03:34:18.982Z,17.00
2018-08-17T03:36:47.352Z,16.80
2018-08-17T03:41:43.945Z,16.90
2018-08-17T03:44:12.550Z,16.80
2018-08-17T03:46:40.970Z,16.80
2018-08-17T03:49:09.383Z,16.80
2018-08-17T03:51:37.874Z,16.80
2018-08-17T03:54:06.587Z,16.60
2018-08-17T03:56:35.066Z,16.60
2018-08-17T03:59:03.847Z,16.60
2018-08-17T04:01:32.388Z,16.50
2018-08-17T04:04:00.895Z,16.30
2018-08-17T04:06:29.248Z,16.40
2018-08-17T04:08:57.934Z,16.30
2018-08-17T04:11:26.444Z,16.30
2018-08-17T04:13:54.790Z,16.30
2018-08-17T04:16:23.208Z,16.40
2018-08-17T04:18:55.954Z,16.30
2018-08-17T04:21:24.412Z,16.30
2018-08-17T04:23:53.023Z,16.30
2018-08-17T04:26:21.625Z,16.20
2018-08-17T04:28:50.643Z,16.20
2018-08-17T04:31:19.534Z,16.20
2018-08-17T04:33:48.096Z,16.30
2018-08-17T04:36:17.119Z,16.30
2018-08-17T04:38:45.566Z,16.30
2018-08-17T04:41:13.928Z,16.30
2018-08-17T04:43:42.512Z,16.30
2018-08-17T04:46:10.952Z,16.40
2018-08-17T04:48:39.513Z,16.30
2018-08-17T04:51:08.380Z,16.40
2018-08-17T04:53:38.076Z,16.40
2018-08-17T04:56:06.522Z,16.40
2018-08-17T04:58:34.970Z,16.40
2018-08-17T05:03:31.665Z,16.40
2018-08-17T05:06:00.099Z,16.40
2018-08-17T05:08:28.631Z,16.40
2018-08-17T05:10:57.288Z,16.30
2018-08-17T05:13:25.665Z,16.30
2018-08-17T05:15:54.197Z,16.30
2018-08-17T05:18:22.786Z,16.40
2018-08-17T05:20:51.335Z,16.40
2018-08-17T05:23:19.807Z,16.30
2018-08-17T05:28:36.864Z,16.50
2018-08-17T05:31:05.411Z,16.50
2018-08-17T05:33:33.970Z,16.70
2018-08-17T05:36:02.309Z,16.90
2018-08-17T05:38:30.977Z,17.00
2018-08-17T05:40:59.360Z,17.20
2018-08-17T05:43:27.776Z,17.20
2018-08-17T05:45:56.542Z,17.40
2018-08-17T05:48:24.811Z,17.50
2018-08-17T05:50:53.242Z,17.70
2018-08-17T05:53:22.007Z,17.90
2018-08-17T05:55:50.532Z,18.00
2018-08-17T05:58:18.924Z,18.10
2018-08-17T06:00:47.314Z,18.30
2018-08-17T06:03:15.788Z,18.50
2018-08-17T06:05:44.235Z,18.70
2018-08-17T06:08:12.697Z,18.80
2018-08-17T06:10:41.010Z,19.00
2018-08-17T06:13:09.392Z,19.20
2018-08-17T06:15:37.822Z,19.30
2018-08-17T06:18:06.280Z,19.60
2018-08-17T06:20:34.899Z,19.70
2018-08-17T06:23:03.369Z,20.00
2018-08-17T06:25:31.842Z,20.20
2018-08-17T06:28:00.299Z,20.30
2018-08-17T06:30:28.831Z,20.50
2018-08-17T06:32:57.223Z,20.70
2018-08-17T06:35:25.690Z,20.90
2018-08-17T06:37:54.214Z,21.10
2018-08-17T06:40:22.823Z,21.30
2018-08-17T06:42:51.347Z,21.60
2018-08-17T06:45:19.795Z,21.80
2018-08-17T06:47:48.171Z,22.20
2018-08-17T06:50:16.727Z,22.40
2018-08-17T06:52:45.301Z,22.50
2018-08-17T06:55:13.832Z,22.80
2018-08-17T06:57:42.322Z,23.00
2018-08-17T07:00:13.548Z,22.90
2018-08-17T07:02:42.986Z,23.20
2018-08-17T07:05:11.333Z,23.20
2018-08-17T07:07:41.514Z,23.30
2018-08-17T07:10:12.559Z,23.40
2018-08-17T07:12:41.823Z,23.70
2018-08-17T07:15:11.510Z,23.70
2018-08-17T07:17:40.275Z,23.90
2018-08-17T07:20:10.458Z,24.20
2018-08-17T07:22:38.938Z,24.10
2018-08-17T07:25:07.485Z,24.20
2018-08-17T07:27:35.949Z,24.50
2018-08-17T07:30:06.960Z,24.60
2018-08-17T07:32:35.363Z,24.70
2018-08-17T07:35:04.002Z,25.00
2018-08-17T07:37:32.479Z,25.30
2018-08-17T07:40:01.257Z,25.60
2018-08-17T07:42:29.766Z,25.70
2018-08-17T07:44:58.188Z,25.70
2018-08-17T07:47:26.633Z,25.90
2018-08-17T07:49:55.007Z,26.00
2018-08-17T07:52:23.389Z,26.30
2018-08-17T07:54:51.735Z,26.20
2018-08-17T07:57:20.441Z,26.40
2018-08-17T07:59:49.016Z,26.70
2018-08-17T08:02:17.460Z,26.90
2018-08-17T08:04:45.887Z,27.10
2018-08-17T08:07:14.232Z,27.10
2018-08-17T08:09:42.653Z,27.30
2018-08-17T08:12:11.113Z,27.50
2018-08-17T08:14:39.548Z,27.50
2018-08-17T08:17:08.002Z,27.60
2018-08-17T08:19:36.551Z,27.80
2018-08-17T08:22:05.188Z,27.80
2018-08-17T08:24:37.213Z,27.90
2018-08-17T08:27:06.733Z,27.90
2018-08-17T08:29:35.217Z,28.00
2018-08-17T08:32:03.745Z,28.00
2018-08-17T08:34:32.264Z,28.10
2018-08-17T08:37:00.753Z,28.10
2018-08-17T08:39:29.175Z,28.50
2018-08-17T08:41:57.732Z,28.50
2018-08-17T08:44:26.218Z,28.80
2018-08-17T08:46:54.809Z,28.80
2018-08-17T08:49:24.395Z,28.70
2018-08-17T08:51:52.949Z,28.80
2018-08-17T08:54:21.489Z,28.80
2018-08-17T08:56:50.008Z,28.90
2018-08-17T08:59:18.536Z,29.00
2018-08-17T09:01:47.169Z,29.00
2018-08-17T09:04:15.653Z,28.90
2018-08-17T09:06:44.162Z,29.10
2018-08-17T09:09:13.762Z,29.10
2018-08-17T09:11:42.336Z,29.30
2018-08-17T09:14:10.930Z,29.40
2018-08-17T09:16:39.504Z,29.30
2018-08-17T09:19:07.992Z,29.30
2018-08-17T09:21:36.580Z,29.40
2018-08-17T09:24:04.909Z,29.40
2018-08-17T09:26:33.300Z,29.60
2018-08-17T09:29:01.668Z,29.70
2018-08-17T09:31:30.096Z,29.70
2018-08-17T09:33:58.676Z,30.00
2018-08-17T09:36:27.104Z,30.30
2018-08-17T09:38:55.577Z,30.30
2018-08-17T09:41:23.998Z,30.30
2018-08-17T09:43:52.509Z,30.10
2018-08-17T09:46:20.955Z,30.10
2018-08-17T09:48:49.443Z,30.10
2018-08-17T09:51:17.844Z,30.30
2018-08-17T09:53:46.165Z,30.40
2018-08-17T09:56:14.522Z,30.60
2018-08-17T09:58:43.045Z,30.60
2018-08-17T10:01:17.084Z,30.50
2018-08-17T10:03:53.052Z,30.50
2018-08-17T10:06:26.792Z,30.50
2018-08-17T10:09:00.737Z,30.50
2018-08-17T10:11:29.367Z,30.50
2018-08-17T10:13:57.713Z,30.70
2018-08-17T10:16:26.126Z,30.60
2018-08-17T10:18:54.528Z,30.70
2018-08-17T10:21:23.266Z,30.70
2018-08-17T10:23:51.453Z,30.70
2018-08-17T10:26:19.851Z,30.70
2018-08-17T10:28:48.165Z,30.70
2018-08-17T10:31:17.679Z,30.70
2018-08-17T10:33:48.285Z,30.80
2018-08-17T10:36:16.788Z,31.00
2018-08-17T10:38:45.165Z,31.10
2018-08-17T10:41:13.514Z,31.20
2018-08-17T10:43:42.002Z,31.30
2018-08-17T10:46:10.421Z,31.20
2018-08-17T10:48:38.916Z,31.20
2018-08-17T10:51:07.545Z,31.20
2018-08-17T10:53:46.504Z,31.10
2018-08-17T10:56:14.975Z,31.10
2018-08-17T10:58:43.490Z,31.00
2018-08-17T11:01:11.900Z,30.90
2018-08-17T11:03:40.338Z,30.80
2018-08-17T11:06:08.781Z,30.70
2018-08-17T11:13:33.488Z,30.70
2018-08-17T11:16:02.107Z,30.90
2018-08-17T11:20:58.715Z,31.10
2018-08-17T11:23:27.327Z,31.10
2018-08-17T11:25:55.949Z,31.10
2018-08-17T11:28:24.664Z,31.10
2018-08-17T11:30:53.119Z,31.20
2018-08-17T11:33:26.383Z,30.90
2018-08-17T11:35:55.282Z,31.00
2018-08-17T11:38:23.750Z,30.90
2018-08-17T11:40:52.269Z,30.70
2018-08-17T11:43:20.849Z,30.70
2018-08-17T11:45:49.269Z,30.90
2018-08-17T11:48:34.295Z,30.90
2018-08-17T11:51:02.795Z,30.90
2018-08-17T11:53:31.261Z,30.80
2018-08-17T11:55:59.640Z,31.00
2018-08-17T11:58:28.123Z,31.10
2018-08-17T12:00:56.660Z,31.10
2018-08-17T12:03:25.265Z,31.10
2018-08-17T12:05:53.805Z,31.10
2018-08-17T12:08:22.579Z,31.10
2018-08-17T12:10:56.488Z,31.10
2018-08-17T12:15:55.600Z,31.10
2018-08-17T12:18:24.377Z,31.10
2018-08-17T12:20:53.388Z,31.10
2018-08-17T12:23:22.246Z,31.10
2018-08-17T12:25:56.867Z,31.20
2018-08-17T12:28:26.903Z,31.10
2018-08-17T12:30:56.098Z,31.00
2018-08-17T12:33:24.418Z,31.00
2018-08-17T12:35:53.249Z,30.90
2018-08-17T12:38:21.790Z,30.90
2018-08-17T12:40:51.712Z,31.00
2018-08-17T12:43:24.131Z,31.00
2018-08-17T12:45:52.622Z,31.10
2018-08-17T12:48:21.207Z,31.10
2018-08-17T12:50:50.370Z,31.10
2018-08-17T12:53:18.895Z,31.00
2018-08-17T12:55:47.455Z,30.90
2018-08-17T12:58:16.150Z,30.90
2018-08-17T13:00:44.740Z,30.90
2018-08-17T13:03:13.223Z,30.90
2018-08-17T13:05:41.814Z,31.00
2018-08-17T13:08:10.370Z,31.00
2018-08-17T13:10:39.035Z,31.00
2018-08-17T13:13:08.847Z,30.90
2018-08-17T13:15:37.983Z,30.90
2018-08-17T13:18:12.747Z,30.80
2018-08-17T13:20:41.237Z,30.70
2018-08-17T13:23:09.744Z,30.70
2018-08-17T13:25:38.535Z,30.90
2018-08-17T13:28:06.969Z,30.90
2018-08-17T13:30:35.607Z,30.90
2018-08-17T13:34:29.001Z,30.90
2018-08-17T13:36:58.475Z,30.70
2018-08-17T13:39:26.927Z,30.60
2018-08-17T13:41:55.516Z,30.80
2018-08-17T13:44:24.059Z,30.90
2018-08-17T13:46:53.675Z,30.90
2018-08-17T13:49:22.310Z,30.90
2018-08-17T13:51:51.438Z,30.90
2018-08-17T13:56:48.239Z,30.70
2018-08-17T13:59:16.832Z,30.70
2018-08-17T14:01:45.293Z,30.80
2018-08-17T14:04:13.619Z,30.80
2018-08-17T14:06:42.130Z,30.60
2018-08-17T14:09:10.724Z,30.60
2018-08-17T14:11:39.261Z,30.50
2018-08-17T14:14:07.794Z,30.40
2018-08-17T14:16:37.230Z,30.40
2018-08-17T14:19:08.220Z,30.40
2018-08-17T14:21:37.909Z,30.50
2018-08-17T14:24:10.891Z,30.50
2018-08-17T14:26:47.270Z,30.50
2018-08-17T14:29:21.953Z,30.60
2018-08-17T14:31:50.344Z,30.50
2018-08-17T14:34:18.702Z,30.50
2018-08-17T14:36:46.856Z,30.50
2018-08-17T14:39:15.284Z,30.60
2018-08-17T14:42:00.221Z,30.60
2018-08-17T14:44:28.955Z,30.40
2018-08-17T14:46:57.480Z,30.30
2018-08-17T14:49:26.378Z,30.30
2018-08-17T14:51:54.848Z,30.30
2018-08-17T14:54:25.155Z,30.30
2018-08-17T14:56:53.553Z,30.30
2018-08-17T14:59:22.221Z,30.30
2018-08-17T15:01:50.438Z,29.90
2018-08-17T15:04:19.925Z,30.10
2018-08-17T15:06:48.354Z,30.30
2018-08-17T15:09:16.799Z,30.30
2018-08-17T15:11:45.376Z,30.30
2018-08-17T15:14:15.878Z,30.30
2018-08-17T15:16:44.343Z,30.30
2018-08-17T15:19:14.005Z,30.30
2018-08-17T15:21:42.428Z,30.20
2018-08-17T15:24:11.436Z,30.10
2018-08-17T15:26:40.588Z,30.00
2018-08-17T15:29:09.007Z,30.00
2018-08-17T15:31:38.064Z,30.00
2018-08-17T15:34:06.986Z,30.00
2018-08-17T15:36:35.412Z,30.00
2018-08-17T15:39:04.933Z,30.10
2018-08-17T15:41:33.451Z,30.20
2018-08-17T15:44:01.881Z,30.20
2018-08-17T15:46:33.331Z,30.40
2018-08-17T15:49:01.594Z,30.30
2018-08-17T15:51:29.974Z,30.00
2018-08-17T15:53:59.471Z,30.30
2018-08-17T15:56:28.945Z,30.30
2018-08-17T15:59:06.374Z,30.30
2018-08-17T16:01:35.344Z,30.30
2018-08-17T16:04:03.465Z,30.20
2018-08-17T16:06:31.693Z,30.20
2018-08-17T16:08:59.910Z,30.20
2018-08-17T16:11:28.088Z,30.20
2018-08-17T16:13:56.239Z,30.20
2018-08-17T16:16:24.429Z,30.10
2018-08-17T16:18:52.608Z,30.00
2018-08-17T16:21:20.786Z,30.10
2018-08-17T16:23:48.947Z,30.10
2018-08-17T16:26:17.121Z,30.10
2018-08-17T16:28:45.274Z,30.10
2018-08-17T16:31:13.424Z,30.10
2018-08-17T16:33:41.608Z,30.10
2018-08-17T16:36:09.764Z,30.10
2018-08-17T16:38:38.642Z,30.00
2018-08-17T16:41:06.995Z,30.00
2018-08-17T16:43:43.309Z,30.00
2018-08-17T16:46:11.819Z,30.00
2018-08-17T16:48:40.938Z,30.20
2018-08-17T16:51:09.214Z,30.00
2018-08-17T16:53:44.145Z,30.00
2018-08-17T16:56:12.296Z,30.00
2018-08-17T16:58:40.471Z,30.00
2018-08-17T17:01:09.708Z,30.00
2018-08-17T17:03:37.966Z,29.90
2018-08-17T17:13:08.636Z,29.40
2018-08-17T17:15:36.831Z,29.40
2018-08-17T17:18:09.372Z,29.50
2018-08-17T17:20:38.514Z,29.60
2018-08-17T17:23:09.099Z,29.60
2018-08-17T17:25:37.572Z,29.70
2018-08-17T17:28:05.912Z,29.70
2018-08-17T17:30:41.454Z,29.60
2018-08-17T17:33:10.203Z,29.60
2018-08-17T17:35:39.590Z,29.60
2018-08-17T17:38:08.271Z,29.50
2018-08-17T17:40:36.540Z,29.50
2018-08-17T17:43:05.056Z,29.40
2018-08-17T17:45:33.251Z,29.40
2018-08-17T17:48:03.055Z,29.30
2018-08-17T17:50:32.320Z,29.30
2018-08-17T17:53:01.719Z,29.20
2018-08-17T17:55:51.314Z,29.10
2018-08-17T17:58:20.718Z,29.00
2018-08-17T18:00:59.950Z,28.80
2018-08-17T18:03:29.544Z,28.50
2018-08-17T18:06:01.359Z,28.50
2018-08-17T18:08:30.194Z,28.50
2018-08-17T18:10:58.414Z,28.40
2018-08-17T18:13:26.736Z,28.30
2018-08-17T18:15:54.948Z,28.10
2018-08-17T18:18:23.280Z,28.10
2018-08-17T18:20:51.682Z,27.90
2018-08-17T18:23:19.879Z,27.70
2018-08-17T18:25:48.164Z,27.30
2018-08-17T18:28:16.331Z,27.10
2018-08-17T18:30:45.554Z,26.80
2018-08-17T18:33:13.715Z,26.50
2018-08-17T18:35:41.992Z,26.40
2018-08-17T18:38:10.138Z,26.30
2018-08-17T18:40:38.303Z,26.20
2018-08-17T18:43:06.464Z,26.20
2018-08-17T18:45:34.627Z,26.00
2018-08-17T18:48:02.806Z,26.00
2018-08-17T18:50:30.962Z,25.80
2018-08-17T18:52:59.118Z,25.60
2018-08-17T18:55:27.288Z,25.60
2018-08-17T18:57:55.455Z,25.60
2018-08-17T19:00:23.709Z,25.60
2018-08-17T19:02:51.991Z,25.60
2018-08-17T19:05:20.242Z,25.50
2018-08-17T19:07:48.507Z,25.40
2018-08-17T19:10:18.150Z,25.20
2018-08-17T19:12:46.537Z,25.20
2018-08-17T19:15:14.771Z,25.10
2018-08-17T19:17:42.952Z,25.00
2018-08-17T19:21:15.195Z,25.00
2018-08-17T19:23:43.434Z,25.00
2018-08-17T19:26:11.981Z,24.70
2018-08-17T19:28:40.251Z,24.70
2018-08-17T19:31:08.475Z,24.70
2018-08-17T19:33:36.738Z,24.70
2018-08-17T19:36:05.272Z,24.70
2018-08-17T19:38:37.857Z,24.60
2018-08-17T19:41:06.115Z,24.40
2018-08-17T19:43:34.376Z,24.40
2018-08-17T19:46:02.810Z,24.30
2018-08-17T19:48:30.983Z,24.20
2018-08-17T19:50:59.244Z,24.30
2018-08-17T19:53:27.542Z,24.20
2018-08-17T19:55:55.834Z,24.20
2018-08-17T20:00:52.254Z,23.90
2018-08-17T20:03:20.555Z,23.80
2018-08-17T20:05:48.840Z,23.70
2018-08-17T20:08:17.030Z,23.80
2018-08-17T20:10:45.324Z,23.80
2018-08-17T20:13:13.574Z,23.80
2018-08-17T20:15:41.880Z,23.80
2018-08-17T20:18:10.172Z,23.80
2018-08-17T20:20:38.444Z,23.90
2018-08-17T20:23:06.690Z,23.80
2018-08-17T20:25:34.973Z,23.70
2018-08-17T20:28:03.224Z,23.60
2018-08-17T20:30:31.491Z,23.40
2018-08-17T20:32:59.799Z,23.40
2018-08-17T20:35:28.031Z,23.40
2018-08-17T20:37:56.335Z,23.40
2018-08-17T20:40:24.591Z,23.30
2018-08-17T20:42:52.799Z,23.20
2018-08-17T20:45:24.955Z,23.20
2018-08-17T20:47:53.238Z,23.20
2018-08-17T20:50:21.519Z,23.30
2018-08-17T20:52:55.207Z,23.10
2018-08-17T21:00:21.356Z,23.40
2018-08-17T21:02:49.522Z,23.50
2018-08-17T21:05:17.742Z,23.50
2018-08-17T21:07:46.831Z,23.60
2018-08-17T21:10:15.064Z,23.70
2018-08-17T21:12:43.424Z,23.70
2018-08-17T21:15:11.716Z,23.80
2018-08-17T21:17:39.911Z,23.80
2018-08-17T21:20:08.141Z,23.80
2018-08-17T21:22:36.355Z,23.80
2018-08-17T21:25:04.789Z,23.70
2018-08-17T21:27:33.005Z,23.50
2018-08-17T21:30:01.777Z,23.50
2018-08-17T21:32:30.032Z,23.40
2018-08-17T21:34:58.290Z,23.50
2018-08-17T21:37:27.155Z,23.50
2018-08-17T21:39:55.331Z,23.50
2018-08-17T21:42:23.501Z,23.50
2018-08-17T21:44:51.642Z,23.40
2018-08-17T21:47:19.870Z,23.20
2018-08-17T21:49:48.074Z,23.20
2018-08-17T21:52:21.752Z,23.20
2018-08-17T21:54:49.925Z,23.20
2018-08-17T21:59:48.924Z,23.20
2018-08-17T22:02:17.441Z,23.20
2018-08-17T22:04:45.566Z,23.10
2018-08-17T22:07:16.727Z,23.10
2018-08-17T22:09:44.942Z,23.10
2018-08-17T22:12:13.641Z,23.10
2018-08-17T22:14:41.742Z,23.10
2018-08-17T22:17:21.359Z,23.20
2018-08-17T22:19:49.576Z,23.10
2018-08-17T22:22:17.780Z,23.10
2018-08-17T22:24:50.624Z,23.20
2018-08-17T22:27:19.506Z,23.10
2018-08-17T22:29:49.276Z,23.10
2018-08-17T22:32:17.620Z,23.10
2018-08-17T22:34:46.072Z,23.10
2018-08-17T22:37:14.321Z,23.00
2018-08-17T22:39:42.494Z,22.90
2018-08-17T22:42:10.743Z,22.80
2018-08-17T22:44:38.952Z,22.80
2018-08-17T22:47:14.403Z,22.70
2018-08-17T22:49:42.656Z,22.70
2018-08-17T22:52:10.888Z,22.60
2018-08-17T22:54:46.370Z,22.60
2018-08-17T22:57:15.203Z,22.60
2018-08-17T22:59:49.990Z,22.50
2018-08-17T23:02:18.175Z,22.40
2018-08-17T23:04:46.394Z,22.40
2018-08-17T23:07:14.635Z,22.30
2018-08-17T23:09:42.879Z,22.10
2018-08-17T23:12:11.176Z,21.90
2018-08-17T23:14:39.461Z,21.90
2018-08-17T23:17:07.718Z,21.90
2018-08-17T23:19:42.631Z,21.80
2018-08-17T23:22:10.835Z,21.50
2018-08-17T23:24:39.069Z,21.50
2018-08-17T23:27:07.281Z,21.40
2018-08-17T23:29:35.487Z,21.50
2018-08-17T23:32:03.680Z,21.50
2018-08-17T23:34:31.886Z,21.50
2018-08-17T23:37:00.089Z,21.40
2018-08-17T23:39:28.355Z,21.40
2018-08-17T23:41:56.577Z,21.40
2018-08-17T23:44:24.957Z,21.30
2018-08-17T23:46:53.158Z,21.00
2018-08-17T23:49:21.587Z,21.00
2018-08-17T23:51:49.827Z,21.00
2018-08-17T23:54:18.138Z,20.90
2018-08-17T23:56:46.408Z,20.90
2018-08-17T23:59:14.655Z,20.90
